Time;durP1;ratioP1;P1;durP2;ratioP2;P2;SDS_P1;SDS_P2;PMS_P1;PMS_P2;Temp;Humidity;BMP_temperature;BMP_pressure;BME280_temperature;BME280_humidity;BME280_pressure;Samples;Min_cycle;Max_cycle;Signal;HPM_P1;HPM_P2
2021/07/06 00:00:22;;;;;;;2.33;1.75;;;23.20;99.90;;;;;;4955558;28;20042;-83
2021/07/06 00:02:50;;;;;;;2.40;1.92;;;23.20;99.90;;;;;;4970410;28;20081;-83
2021/07/06 00:05:15;;;;;;;1.75;1.65;;;23.10;99.90;;;;;;4955988;28;20031;-84
2021/07/06 00:07:41;;;;;;;2.63;1.77;;;23.20;99.90;;;;;;4955818;28;20371;-84
2021/07/06 00:10:09;;;;;;;2.03;1.58;;;23.10;99.90;;;;;;4955081;28;20043;-84
2021/07/06 00:12:34;;;;;;;1.67;1.58;;;23.00;99.90;;;;;;4956209;28;20035;-84
2021/07/06 00:15:00;;;;;;;3.08;1.77;;;22.90;99.90;;;;;;4954414;28;20035;-84
2021/07/06 00:17:26;;;;;;;1.77;1.67;;;22.80;99.90;;;;;;4955654;28;20034;-84
2021/07/06 00:19:52;;;;;;;3.25;1.50;;;22.90;99.90;;;;;;4955177;28;20027;-84
2021/07/06 00:22:18;;;;;;;2.33;1.55;;;22.90;99.90;;;;;;4954898;28;20031;-84
2021/07/06 00:24:45;;;;;;;2.90;1.65;;;22.70;99.90;;;;;;4955589;28;20020;-84
2021/07/06 00:27:10;;;;;;;3.08;1.95;;;22.70;99.90;;;;;;4968891;28;20042;-84
2021/07/06 00:29:36;;;;;;;2.53;1.67;;;22.70;99.90;;;;;;4954790;28;20035;-83
2021/07/06 00:32:03;;;;;;;2.85;1.98;;;22.60;99.90;;;;;;4955240;28;20110;-84
2021/07/06 00:34:28;;;;;;;2.88;1.80;;;22.70;99.90;;;;;;4955583;28;20109;-84
2021/07/06 00:36:54;;;;;;;2.03;1.60;;;22.60;99.90;;;;;;4954194;28;20067;-84
2021/07/06 00:39:19;;;;;;;1.95;1.60;;;22.50;99.90;;;;;;4955025;28;20035;-83
2021/07/06 00:41:45;;;;;;;2.85;1.80;;;22.50;99.90;;;;;;4955074;28;20146;-84
2021/07/06 00:44:19;;;;;;;2.08;1.90;;;22.50;99.90;;;;;;4954792;28;20027;-84
2021/07/06 00:46:46;;;;;;;2.28;1.60;;;22.50;99.90;;;;;;4955092;28;20031;-83
2021/07/06 00:49:12;;;;;;;1.75;1.65;;;22.50;99.90;;;;;;4953895;28;20027;-84
2021/07/06 00:51:38;;;;;;;2.60;1.90;;;22.50;99.90;;;;;;4955177;28;20035;-84
2021/07/06 00:54:05;;;;;;;2.63;1.70;;;22.40;99.90;;;;;;4955009;28;20023;-83
2021/07/06 00:56:31;;;;;;;2.75;2.00;;;22.40;99.90;;;;;;4954513;28;20496;-84
2021/07/06 00:58:57;;;;;;;3.33;1.90;;;22.30;99.90;;;;;;4955053;28;20542;-83
2021/07/06 01:01:24;;;;;;;5.00;1.65;;;22.30;99.90;;;;;;4954268;28;20110;-84
2021/07/06 01:03:49;;;;;;;1.98;1.73;;;22.30;99.90;;;;;;4954341;28;20388;-84
2021/07/06 01:06:15;;;;;;;2.05;1.80;;;22.20;99.90;;;;;;4954919;28;20038;-83
2021/07/06 01:08:45;;;;;;;3.35;1.90;;;22.20;99.90;;;;;;4954279;28;20053;-84
2021/07/06 01:11:12;;;;;;;2.55;1.77;;;22.20;99.90;;;;;;4954759;28;20031;-84
2021/07/06 01:13:38;;;;;;;3.60;2.30;;;22.20;99.90;;;;;;4954513;28;20030;-84
2021/07/06 01:16:04;;;;;;;2.15;1.70;;;22.20;99.90;;;;;;4950138;29;20035;-84
2021/07/06 01:18:30;;;;;;;3.08;1.90;;;22.20;99.90;;;;;;4954499;28;20031;-83
2021/07/06 01:20:57;;;;;;;2.22;1.92;;;22.10;99.90;;;;;;4954439;28;20114;-83
2021/07/06 01:23:28;;;;;;;3.83;2.10;;;22.10;99.90;;;;;;4954359;28;20039;-83
2021/07/06 01:25:58;;;;;;;2.63;1.90;;;22.20;99.90;;;;;;4955259;28;20452;-83
2021/07/06 01:28:24;;;;;;;8.88;2.33;;;22.20;99.90;;;;;;4954192;28;20031;-84
2021/07/06 01:30:50;;;;;;;2.15;1.90;;;22.10;99.90;;;;;;4953869;28;20023;-83
2021/07/06 01:33:24;;;;;;;3.40;2.20;;;22.20;99.90;;;;;;4954731;28;20031;-83
2021/07/06 01:36:01;;;;;;;2.67;2.33;;;22.20;99.90;;;;;;4954909;28;20027;-84
2021/07/06 01:38:27;;;;;;;2.63;1.98;;;22.20;99.90;;;;;;4953379;28;20054;-83
2021/07/06 01:40:54;;;;;;;2.17;1.98;;;22.20;99.90;;;;;;4954658;28;20055;-84
2021/07/06 01:43:20;;;;;;;4.97;2.20;;;22.30;99.90;;;;;;4952567;28;20031;-84
2021/07/06 01:45:45;;;;;;;2.30;2.10;;;22.20;99.90;;;;;;4952611;28;20038;-83
2021/07/06 01:48:11;;;;;;;2.83;2.33;;;22.30;99.90;;;;;;4953969;28;20385;-84
2021/07/06 01:50:40;;;;;;;6.15;2.40;;;22.20;99.90;;;;;;4954083;28;20058;-83
2021/07/06 01:53:09;;;;;;;2.78;2.00;;;22.30;99.90;;;;;;4953809;28;20086;-83
2021/07/06 01:55:40;;;;;;;2.35;2.13;;;22.20;99.90;;;;;;4954145;28;20134;-84
2021/07/06 01:58:08;;;;;;;3.05;2.10;;;22.20;99.90;;;;;;4948153;29;20491;-83
2021/07/06 02:00:38;;;;;;;7.38;2.40;;;22.20;99.90;;;;;;4955989;28;20039;-83
2021/07/06 02:03:05;;;;;;;2.95;2.30;;;22.10;99.90;;;;;;4954002;28;20489;-83
2021/07/06 02:05:35;;;;;;;4.38;2.45;;;22.10;99.90;;;;;;4953360;28;20632;-83
2021/07/06 02:08:02;;;;;;;2.95;2.70;;;22.10;99.90;;;;;;4953813;28;20511;-84
2021/07/06 02:10:28;;;;;;;3.13;2.50;;;22.00;99.90;;;;;;4954140;28;20027;-83
2021/07/06 02:12:57;;;;;;;4.45;2.50;;;22.10;99.90;;;;;;4953149;28;20472;-83
2021/07/06 02:15:22;;;;;;;2.60;2.40;;;22.10;99.90;;;;;;4953706;28;20114;-84
2021/07/06 02:17:48;;;;;;;2.63;2.42;;;22.10;99.90;;;;;;4954222;28;20051;-83
2021/07/06 02:20:17;;;;;;;4.53;2.35;;;22.00;99.90;;;;;;4952482;28;20074;-83
2021/07/06 02:22:44;;;;;;;3.22;2.83;;;22.00;99.90;;;;;;4953492;28;20036;-84
2021/07/06 02:25:12;;;;;;;5.05;3.10;;;22.00;99.90;;;;;;4952771;28;20114;-84
2021/07/06 02:27:38;;;;;;;2.95;2.53;;;22.00;99.90;;;;;;4952603;28;20114;-84
2021/07/06 02:30:09;;;;;;;3.85;3.00;;;22.00;99.90;;;;;;4953660;28;20046;-83
2021/07/06 02:32:35;;;;;;;2.78;2.58;;;22.00;99.90;;;;;;4954092;28;20035;-83
2021/07/06 02:35:00;;;;;;;4.35;2.97;;;22.10;99.90;;;;;;4952762;28;20532;-83
2021/07/06 02:37:26;;;;;;;3.30;3.00;;;22.00;99.90;;;;;;4953230;28;20031;-83
2021/07/06 02:39:51;;;;;;;3.05;2.80;;;22.00;99.90;;;;;;4952923;28;20054;-83
2021/07/06 02:42:17;;;;;;;4.78;2.75;;;22.00;99.90;;;;;;4953964;28;20039;-83
2021/07/06 02:44:43;;;;;;;3.45;2.78;;;22.00;99.90;;;;;;4952200;28;20038;-83
2021/07/06 02:47:09;;;;;;;4.60;2.92;;;22.00;99.90;;;;;;4953727;28;20050;-83
2021/07/06 02:49:34;;;;;;;5.78;2.70;;;22.00;99.90;;;;;;4953487;28;20062;-83
2021/07/06 02:52:00;;;;;;;3.30;3.00;;;21.90;99.90;;;;;;4955410;28;20023;-83
2021/07/06 02:54:25;;;;;;;4.00;2.90;;;21.90;99.90;;;;;;4955692;28;20070;-83
2021/07/06 02:56:51;;;;;;;4.32;2.88;;;22.00;99.90;;;;;;4957090;28;20396;-84
2021/07/06 02:59:17;;;;;;;2.90;2.70;;;22.00;99.90;;;;;;4957055;28;20444;-84
2021/07/06 03:01:42;;;;;;;3.85;3.20;;;21.90;99.90;;;;;;4957024;28;20035;-83
2021/07/06 03:04:08;;;;;;;4.18;2.88;;;22.00;99.90;;;;;;4955768;28;20090;-83
2021/07/06 03:06:34;;;;;;;2.88;2.67;;;22.00;99.90;;;;;;4958560;28;20392;-83
2021/07/06 03:09:00;;;;;;;2.90;2.70;;;22.10;99.90;;;;;;4956507;28;20439;-83
2021/07/06 03:11:26;;;;;;;3.28;2.78;;;22.10;99.90;;;;;;4957136;28;20169;-83
2021/07/06 03:13:51;;;;;;;4.38;3.08;;;22.10;99.90;;;;;;4957169;28;20506;-84
2021/07/06 03:16:17;;;;;;;4.75;3.00;;;22.20;99.90;;;;;;4955938;28;20109;-84
2021/07/06 03:18:43;;;;;;;4.75;2.80;;;22.30;99.90;;;;;;4956299;28;20535;-84
2021/07/06 03:21:09;;;;;;;3.28;2.80;;;22.20;99.90;;;;;;4954885;28;20057;-83
2021/07/06 03:23:34;;;;;;;4.45;3.08;;;22.20;99.90;;;;;;4955462;28;20268;-84
2021/07/06 03:26:00;;;;;;;4.50;3.00;;;22.30;99.90;;;;;;4956430;28;20029;-84
2021/07/06 03:28:25;;;;;;;4.72;2.97;;;22.40;99.90;;;;;;4957079;28;20043;-83
2021/07/06 03:30:51;;;;;;;3.20;2.90;;;22.40;99.90;;;;;;4955730;28;20051;-83
2021/07/06 03:33:17;;;;;;;3.08;2.70;;;22.40;99.90;;;;;;4956113;28;20031;-83
2021/07/06 03:35:43;;;;;;;3.10;2.78;;;22.50;99.90;;;;;;4955821;28;20086;-83
2021/07/06 03:38:09;;;;;;;3.10;2.75;;;22.50;99.90;;;;;;4956926;28;20034;-84
2021/07/06 03:40:35;;;;;;;5.28;2.97;;;22.50;99.90;;;;;;4956293;28;20026;-84
2021/07/06 03:43:01;;;;;;;6.32;2.83;;;22.50;99.90;;;;;;4955853;28;20034;-83
2021/07/06 03:45:27;;;;;;;4.05;2.55;;;22.50;99.90;;;;;;4955874;28;20094;-84
2021/07/06 03:47:54;;;;;;;6.25;3.00;;;22.50;99.90;;;;;;4956459;28;20027;-83
2021/07/06 03:50:23;;;;;;;5.18;3.00;;;22.30;99.90;;;;;;4955360;28;20051;-84
2021/07/06 03:52:57;;;;;;;3.90;3.10;;;22.30;99.90;;;;;;4956388;28;20082;-83
2021/07/06 03:55:24;;;;;;;4.05;3.08;;;22.40;99.90;;;;;;4956019;28;20106;-84
2021/07/06 03:57:50;;;;;;;3.17;2.75;;;22.50;99.90;;;;;;4968814;28;20035;-83
2021/07/06 04:00:21;;;;;;;3.05;2.83;;;22.40;99.90;;;;;;4955675;28;20509;-84
2021/07/06 04:02:48;;;;;;;7.68;3.13;;;22.40;99.90;;;;;;4955462;28;20440;-84
2021/07/06 04:05:14;;;;;;;3.92;2.92;;;22.40;99.90;;;;;;4955391;28;20062;-83
2021/07/06 04:07:40;;;;;;;5.18;3.13;;;22.40;99.90;;;;;;4955626;28;20050;-83
2021/07/06 04:10:09;;;;;;;3.65;2.72;;;22.30;99.90;;;;;;4955197;28;20073;-83
2021/07/06 04:12:36;;;;;;;4.32;3.20;;;22.30;99.90;;;;;;4957739;28;20459;-83
2021/07/06 04:15:03;;;;;;;4.95;2.90;;;22.30;99.90;;;;;;4955451;28;20031;-83
2021/07/06 04:17:28;;;;;;;4.50;3.00;;;22.30;99.90;;;;;;4954891;28;20028;-81
2021/07/06 04:19:56;;;;;;;2.83;2.50;;;22.30;99.90;;;;;;4955908;28;20034;-83
2021/07/06 04:22:22;;;;;;;4.82;3.15;;;22.40;99.90;;;;;;4955911;28;20035;-83
2021/07/06 04:24:48;;;;;;;4.25;3.03;;;22.50;99.90;;;;;;4952314;29;20027;-84
2021/07/06 04:27:13;;;;;;;5.43;2.90;;;22.50;99.90;;;;;;4953981;28;20039;-84
2021/07/06 04:29:39;;;;;;;4.22;3.08;;;22.50;99.90;;;;;;4955995;28;20065;-84
2021/07/06 04:32:05;;;;;;;4.43;2.90;;;22.50;99.90;;;;;;4954851;28;20035;-83
2021/07/06 04:34:30;;;;;;;3.40;2.97;;;22.50;99.90;;;;;;4955193;28;20026;-83
2021/07/06 04:36:56;;;;;;;5.28;2.78;;;22.50;99.90;;;;;;4954633;28;20031;-83
2021/07/06 04:39:22;;;;;;;6.28;3.10;;;22.50;99.90;;;;;;4954907;28;20122;-84
2021/07/06 04:41:48;;;;;;;10.82;3.72;;;22.40;99.90;;;;;;4955423;28;20037;-83
2021/07/06 04:44:14;;;;;;;5.80;3.33;;;22.30;99.90;;;;;;4955262;28;20031;-83
2021/07/06 04:46:41;;;;;;;5.78;3.25;;;22.40;99.90;;;;;;4969572;28;20027;-83
2021/07/06 04:49:07;;;;;;;4.43;3.30;;;22.40;99.90;;;;;;4954657;28;20029;-83
2021/07/06 04:51:33;;;;;;;3.42;3.13;;;22.50;99.90;;;;;;4953116;28;20051;-84
2021/07/06 04:54:00;;;;;;;6.15;3.22;;;22.40;99.90;;;;;;4954745;28;20546;-83
2021/07/06 04:56:27;;;;;;;7.82;3.30;;;22.40;99.90;;;;;;4954892;28;20476;-83
2021/07/06 04:58:53;;;;;;;6.30;3.92;;;22.40;99.90;;;;;;4969565;28;20050;-83
2021/07/06 05:01:19;;;;;;;3.67;2.92;;;22.40;99.90;;;;;;4953924;28;20415;-83
2021/07/06 05:03:45;;;;;;;5.07;3.00;;;22.50;99.90;;;;;;4954152;28;20114;-83
2021/07/06 05:06:11;;;;;;;3.30;3.00;;;22.50;99.90;;;;;;4953531;28;20122;-83
2021/07/06 05:08:38;;;;;;;3.25;2.95;;;22.50;99.90;;;;;;4954873;28;20030;-83
2021/07/06 05:11:04;;;;;;;4.50;2.70;;;22.50;99.90;;;;;;4954377;28;20027;-84
2021/07/06 05:13:29;;;;;;;4.35;2.78;;;22.60;99.90;;;;;;4954336;28;20031;-84
2021/07/06 05:15:55;;;;;;;3.90;3.05;;;22.60;99.90;;;;;;4953112;28;20027;-83
2021/07/06 05:18:21;;;;;;;4.07;3.45;;;22.60;99.90;;;;;;4954578;28;20027;-83
2021/07/06 05:20:46;;;;;;;3.83;3.00;;;22.70;99.90;;;;;;4953451;28;20039;-84
2021/07/06 05:23:12;;;;;;;3.90;2.90;;;22.70;99.90;;;;;;4954491;28;20031;-84
2021/07/06 05:25:38;;;;;;;4.78;3.13;;;22.70;99.90;;;;;;4954514;28;20164;-86
2021/07/06 05:28:04;;;;;;;3.47;2.63;;;22.70;99.90;;;;;;4953836;28;20038;-88
2021/07/06 05:30:29;;;;;;;5.03;3.28;;;22.70;99.90;;;;;;4954789;28;20097;-90
2021/07/06 05:32:55;;;;;;;3.45;3.15;;;22.70;99.90;;;;;;4955464;28;20412;-90
2021/07/06 05:35:21;;;;;;;4.07;3.00;;;22.70;99.90;;;;;;4955199;28;20023;-90
2021/07/06 05:37:47;;;;;;;7.47;3.30;;;22.60;99.90;;;;;;4956931;28;20031;-89
2021/07/06 05:40:13;;;;;;;3.95;3.00;;;22.50;99.90;;;;;;4954370;28;20027;-90
2021/07/06 05:42:39;;;;;;;5.13;2.80;;;22.50;99.90;;;;;;4955814;28;20027;-87
2021/07/06 05:45:07;;;;;;;3.65;2.80;;;22.40;99.90;;;;;;4956095;28;20027;-88
2021/07/06 05:47:35;;;;;;;6.75;3.00;;;22.50;99.90;;;;;;4955568;28;20401;-88
2021/07/06 05:50:04;;;;;;;3.25;2.58;;;22.50;99.90;;;;;;4954062;28;20058;-87
2021/07/06 05:52:30;;;;;;;4.40;2.70;;;22.50;99.90;;;;;;4954849;28;20029;-91
2021/07/06 05:55:00;;;;;;;2.60;2.40;;;22.50;99.90;;;;;;4953757;28;20035;-90
2021/07/06 05:57:31;;;;;;;3.03;2.72;;;22.40;99.90;;;;;;4955775;28;20036;-90
2021/07/06 06:00:04;;;;;;;3.05;2.67;;;22.50;99.90;;;;;;4955165;28;20399;-89
2021/07/06 06:02:29;;;;;;;4.60;3.10;;;22.50;99.90;;;;;;4955224;28;20063;-90
2021/07/06 06:04:55;;;;;;;3.42;2.85;;;22.40;99.90;;;;;;4960502;28;20045;-90
2021/07/06 06:07:23;;;;;;;5.45;3.30;;;22.40;99.90;;;;;;4955560;28;20110;-90
2021/07/06 06:09:48;;;;;;;4.15;2.72;;;22.30;99.90;;;;;;4951797;28;20050;-90
2021/07/06 06:12:14;;;;;;;5.43;3.08;;;22.30;99.90;;;;;;4951104;28;20027;-91
2021/07/06 06:14:40;;;;;;;3.13;2.80;;;22.30;99.90;;;;;;4952984;28;20035;-91
2021/07/06 06:17:06;;;;;;;3.15;2.85;;;22.40;99.90;;;;;;4958789;28;20022;-91
2021/07/06 06:19:32;;;;;;;4.25;3.40;;;22.50;99.90;;;;;;4955091;28;20050;-91
2021/07/06 06:21:58;;;;;;;4.85;3.38;;;22.40;99.90;;;;;;4954070;28;20011;-91
2021/07/06 06:24:24;;;;;;;3.95;3.55;;;22.40;99.90;;;;;;4954480;28;20039;-91
2021/07/06 06:26:50;;;;;;;6.45;3.35;;;22.40;99.90;;;;;;4958001;28;20051;-90
2021/07/06 06:29:17;;;;;;;4.07;3.58;;;22.40;99.90;;;;;;4958143;28;20035;-90
2021/07/06 06:31:43;;;;;;;3.53;3.22;;;22.50;99.90;;;;;;4960795;28;20061;-90
2021/07/06 06:34:09;;;;;;;3.78;3.35;;;22.40;99.90;;;;;;4977374;28;20031;-91
2021/07/06 06:36:34;;;;;;;6.40;3.70;;;22.40;99.90;;;;;;4956975;28;20620;-90
2021/07/06 06:39:01;;;;;;;12.85;5.00;;;22.50;99.90;;;;;;4957730;28;20031;-90
2021/07/06 06:41:27;;;;;;;7.22;3.88;;;22.60;99.90;;;;;;4958261;28;20063;-90
2021/07/06 06:43:53;;;;;;;3.80;3.42;;;22.50;99.90;;;;;;4959932;28;20487;-91
2021/07/06 06:46:20;;;;;;;7.82;3.92;;;22.60;99.90;;;;;;4957062;28;20098;-90
2021/07/06 06:48:46;;;;;;;5.22;4.10;;;22.60;99.90;;;;;;4958724;28;20385;-91
2021/07/06 06:51:13;;;;;;;7.15;3.85;;;22.70;99.90;;;;;;4957758;28;20054;-91
2021/07/06 06:53:38;;;;;;;8.25;4.40;;;22.80;99.90;;;;;;4957171;28;20539;-92
2021/07/06 06:56:04;;;;;;;9.25;4.43;;;22.80;99.90;;;;;;4958382;28;20027;-92
2021/07/06 06:58:30;;;;;;;4.40;3.78;;;23.00;99.90;;;;;;4957538;28;20066;-91
2021/07/06 07:00:56;;;;;;;4.32;3.92;;;23.30;99.90;;;;;;4956508;28;20024;-91
2021/07/06 07:03:21;;;;;;;4.82;3.80;;;23.40;99.90;;;;;;4957419;28;20078;-92
2021/07/06 07:05:47;;;;;;;3.80;3.50;;;23.30;99.90;;;;;;4955410;28;20043;-92
2021/07/06 07:08:13;;;;;;;4.03;3.70;;;23.20;99.90;;;;;;4973216;28;20030;-91
2021/07/06 07:10:42;;;;;;;11.00;4.05;;;23.20;99.90;;;;;;4942356;28;20037;-91
2021/07/06 07:13:08;;;;;;;4.78;4.03;;;23.00;99.90;;;;;;4952634;29;20321;-91
2021/07/06 07:15:35;;;;;;;5.15;3.80;;;22.90;99.90;;;;;;4954933;28;20042;-91
2021/07/06 07:18:00;;;;;;;6.70;3.88;;;23.00;99.90;;;;;;4958505;28;20043;-91
2021/07/06 07:20:27;;;;;;;5.57;4.40;;;22.90;99.90;;;;;;4958712;28;20027;-92
2021/07/06 07:22:52;;;;;;;8.05;4.50;;;22.90;99.90;;;;;;4957685;28;20061;-93
2021/07/06 07:25:18;;;;;;;5.28;4.18;;;23.00;99.90;;;;;;4957284;28;20500;-93
2021/07/06 07:27:44;;;;;;;5.03;4.40;;;23.00;99.90;;;;;;4952901;28;20158;-95
2021/07/06 07:30:14;;;;;;;4.80;3.92;;;23.00;99.90;;;;;;4949286;28;20526;-93
2021/07/06 07:32:40;;;;;;;4.75;3.75;;;22.90;99.90;;;;;;4960994;28;20118;-93
2021/07/06 07:35:07;;;;;;;5.70;3.63;;;22.80;99.90;;;;;;4954217;28;20035;-90
2021/07/06 07:37:32;;;;;;;6.50;4.03;;;22.70;99.90;;;;;;4952396;28;20031;-91
2021/07/06 07:39:58;;;;;;;9.23;3.70;;;22.90;99.90;;;;;;4955396;28;20034;-93
2021/07/06 07:42:24;;;;;;;6.15;4.18;;;23.10;99.90;;;;;;4957892;29;20369;-94
2021/07/06 07:44:50;;;;;;;6.10;4.55;;;23.20;99.90;;;;;;4954388;28;20035;-92
2021/07/06 07:47:16;;;;;;;6.40;4.22;;;23.30;99.90;;;;;;4954445;28;20027;-93
2021/07/06 07:49:42;;;;;;;8.52;4.95;;;23.60;99.90;;;;;;4955226;29;20059;-94
2021/07/06 07:52:08;;;;;;;9.57;4.97;;;23.80;99.90;;;;;;4956666;28;20035;-94
2021/07/06 07:54:35;;;;;;;6.85;4.63;;;23.80;99.90;;;;;;4954173;29;20041;-93
2021/07/06 07:57:01;;;;;;;5.53;4.93;;;23.90;99.90;;;;;;4954852;28;20042;-95
2021/07/06 07:59:26;;;;;;;6.57;5.03;;;23.90;99.90;;;;;;4955109;28;20031;-94
2021/07/06 08:01:52;;;;;;;7.35;4.68;;;23.90;99.90;;;;;;4953846;28;20441;-93
2021/07/06 08:04:17;;;;;;;6.03;4.63;;;23.80;99.90;;;;;;4956285;28;20039;-93
2021/07/06 08:06:43;;;;;;;7.35;4.03;;;24.40;99.90;;;;;;4953947;28;20030;-93
2021/07/06 08:09:09;;;;;;;6.88;4.72;;;25.00;99.90;;;;;;4952890;28;20053;-93
2021/07/06 08:11:35;;;;;;;8.63;4.93;;;25.10;99.90;;;;;;4954281;28;20519;-92
2021/07/06 08:14:00;;;;;;;9.43;5.00;;;25.30;99.90;;;;;;4957819;28;20043;-92
2021/07/06 08:16:26;;;;;;;7.00;4.60;;;25.60;99.90;;;;;;4956041;28;20028;-87
2021/07/06 08:18:52;;;;;;;9.77;4.47;;;25.70;99.90;;;;;;4955075;28;20027;-88
2021/07/06 08:21:20;;;;;;;6.63;4.30;;;26.00;99.90;;;;;;4955084;28;20058;-88
2021/07/06 08:23:45;;;;;;;7.57;4.88;;;25.80;99.90;;;;;;4954957;28;20044;-88
2021/07/06 08:26:11;;;;;;;5.57;4.35;;;25.60;99.90;;;;;;4969522;28;20031;-88
2021/07/06 08:28:37;;;;;;;6.18;4.68;;;25.50;99.90;;;;;;4955153;28;20400;-88
2021/07/06 08:31:03;;;;;;;10.82;5.18;;;25.00;99.90;;;;;;4954450;28;20039;-87
2021/07/06 08:33:31;;;;;;;6.90;4.97;;;25.00;99.90;;;;;;4971813;28;20038;-88
2021/07/06 08:35:56;;;;;;;8.75;5.38;;;24.90;99.90;;;;;;4956643;28;20400;-88
2021/07/06 08:38:22;;;;;;;5.10;4.60;;;25.00;99.90;;;;;;4970753;28;20027;-87
2021/07/06 08:40:51;;;;;;;5.40;4.90;;;24.70;99.90;;;;;;4939209;28;20547;-87
2021/07/06 08:43:18;;;;;;;6.40;4.65;;;24.50;99.90;;;;;;4954092;28;20388;-87
2021/07/06 08:45:45;;;;;;;5.63;4.43;;;24.20;99.90;;;;;;4954694;28;20066;-87
2021/07/06 08:48:12;;;;;;;7.40;4.70;;;23.80;99.90;;;;;;4954600;28;20071;-86
2021/07/06 08:50:38;;;;;;;7.40;5.50;;;23.60;99.90;;;;;;4954425;28;20042;-88
2021/07/06 08:53:03;;;;;;;6.95;5.38;;;23.20;99.90;;;;;;4953549;28;20078;-87
2021/07/06 08:55:29;;;;;;;6.95;5.45;;;23.30;99.90;;;;;;4955518;28;20047;-87
2021/07/06 08:57:55;;;;;;;8.13;6.65;;;22.90;99.90;;;;;;4954517;28;20548;-87
2021/07/06 09:00:22;;;;;;;7.07;6.38;;;22.60;1.00;;;;;;4954746;28;20122;-87
2021/07/06 09:03:00;;;;;;;7.85;6.78;;;22.30;1.00;;;;;;4955092;28;20066;-87
2021/07/06 09:05:28;;;;;;;7.90;6.57;;;22.20;1.00;;;;;;4954479;28;20031;-87
2021/07/06 09:07:53;;;;;;;8.40;6.25;;;22.30;1.00;;;;;;4954505;28;20031;-87
2021/07/06 09:10:21;;;;;;;7.50;6.35;;;22.30;1.00;;;;;;4954241;28;20130;-87
2021/07/06 09:12:48;;;;;;;8.10;7.07;;;21.90;1.00;;;;;;4953773;28;20027;-86
2021/07/06 09:15:33;;;;;;;8.10;7.05;;;21.70;1.00;;;;;;4954475;28;20039;-87
2021/07/06 09:18:10;;;;;;;9.13;6.95;;;21.70;1.00;;;;;;4954383;28;20027;-87
2021/07/06 09:20:37;;;;;;;7.68;5.97;;;21.60;1.00;;;;;;4954722;28;20090;-87
2021/07/06 09:23:25;;;;;;;7.97;5.65;;;21.50;1.00;;;;;;4954097;28;20563;-87
2021/07/06 09:26:14;;;;;;;7.00;6.30;;;21.10;1.00;;;;;;4940731;28;20031;-87
2021/07/06 09:28:51;;;;;;;5.60;5.10;;;20.80;1.00;;;;;;4939214;28;20030;-87
2021/07/06 09:31:24;;;;;;;6.53;4.68;;;20.80;1.00;;;;;;4949477;28;20030;-87
2021/07/06 09:34:00;;;;;;;5.07;4.57;;;20.70;1.00;;;;;;4953584;28;20027;-86
2021/07/06 09:36:49;;;;;;;5.72;4.93;;;20.60;1.00;;;;;;4954025;28;20054;-87
2021/07/06 09:39:24;;;;;;;6.45;3.58;;;20.90;1.00;;;;;;4954001;28;20046;-87
2021/07/06 09:42:04;;;;;;;7.10;4.22;;;20.80;1.00;;;;;;4953983;28;20453;-87
2021/07/06 09:44:39;;;;;;;6.85;5.57;;;20.70;1.00;;;;;;4954256;28;20027;-87
2021/07/06 09:47:08;;;;;;;6.20;4.45;;;20.70;1.00;;;;;;4954469;28;20086;-87
2021/07/06 09:49:38;;;;;;;5.43;3.10;;;20.90;1.00;;;;;;4953835;28;20526;-87
2021/07/06 09:52:15;;;;;;;6.18;3.85;;;20.90;1.00;;;;;;4952785;28;20023;-86
2021/07/06 09:54:46;;;;;;;4.18;3.53;;;20.90;1.00;;;;;;4954129;28;20027;-89
2021/07/06 09:57:59;;;;;;;4.18;3.15;;;20.90;1.00;;;;;;4954558;28;20095;-88
2021/07/06 10:00:10;;;;;;;3.78;3.10;;;20.80;1.00;;;;;;4954896;28;20043;-88
2021/07/06 10:02:39;;;;;;;4.70;2.95;;;20.90;1.00;;;;;;4960055;28;20063;-88
2021/07/06 10:05:08;;;;;;;4.53;3.40;;;21.10;1.00;;;;;;4958508;28;20028;-86
2021/07/06 10:07:36;;;;;;;4.15;2.80;;;21.30;1.00;;;;;;4958078;28;20106;-87
2021/07/06 10:10:06;;;;;;;3.58;2.40;;;21.20;1.00;;;;;;4956745;28;20046;-88
2021/07/06 10:12:32;;;;;;;2.97;1.92;;;21.30;1.00;;;;;;4958257;28;20078;-86
2021/07/06 10:14:58;;;;;;;4.72;1.90;;;21.30;1.00;;;;;;4957551;28;20047;-85
2021/07/06 10:17:24;;;;;;;1.98;1.50;;;21.40;1.00;;;;;;4957836;28;20399;-86
2021/07/06 10:19:50;;;;;;;2.70;1.27;;;21.50;1.00;;;;;;4957325;28;20492;-87
2021/07/06 10:22:16;;;;;;;2.65;1.27;;;21.40;1.00;;;;;;4956689;28;20028;-86
2021/07/06 10:24:44;;;;;;;1.77;1.10;;;21.10;1.00;;;;;;4957304;28;20042;-90
2021/07/06 10:27:22;;;;;;;5.38;1.30;;;21.20;1.00;;;;;;4957903;28;20031;-89
2021/07/06 10:30:04;;;;;;;1.63;1.27;;;21.00;1.00;;;;;;4957051;28;20045;-88
2021/07/06 10:33:00;;;;;;;2.60;1.45;;;21.20;1.00;;;;;;4958116;28;20032;-90
2021/07/06 10:35:55;;;;;;;2.78;1.60;;;21.30;1.00;;;;;;4952225;28;20097;-85
2021/07/06 10:38:29;;;;;;;3.25;1.70;;;21.30;1.00;;;;;;4952154;28;20522;-86
2021/07/06 10:40:57;;;;;;;1.70;1.25;;;21.60;1.00;;;;;;4957398;28;20118;-85
2021/07/06 10:43:53;;;;;;;3.63;1.40;;;21.60;1.00;;;;;;4957404;28;20404;-86
2021/07/06 10:46:21;;;;;;;1.63;1.25;;;21.60;1.00;;;;;;4940734;28;20512;-86
2021/07/06 10:48:56;;;;;;;4.10;1.50;;;22.30;1.00;;;;;;4957274;28;20046;-85
2021/07/06 10:51:34;;;;;;;2.22;1.30;;;22.70;1.00;;;;;;4956310;28;20055;-85
2021/07/06 10:54:14;;;;;;;2.63;1.40;;;22.90;1.00;;;;;;4957256;28;20480;-85
2021/07/06 10:56:43;;;;;;;1.83;1.20;;;23.10;1.00;;;;;;4957331;28;20067;-88
2021/07/06 10:59:30;;;;;;;3.65;1.38;;;23.10;1.00;;;;;;4971875;28;20023;-87
2021/07/06 11:01:59;;;;;;;2.70;0.88;;;23.70;1.00;;;;;;4944222;28;20023;-89
2021/07/06 11:04:42;;;;;;;1.90;1.10;;;23.50;99.90;;;;;;4957381;28;20059;-87
2021/07/06 11:07:09;;;;;;;1.63;1.13;;;23.10;1.00;;;;;;4952585;28;20074;-89
2021/07/06 11:09:35;;;;;;;1.25;1.10;;;22.60;1.00;;;;;;4954193;29;20039;-89
2021/07/06 11:12:26;;;;;;;2.60;1.52;;;22.30;1.00;;;;;;4956572;28;20035;-92
2021/07/06 11:14:54;;;;;;;1.58;1.10;;;22.20;1.00;;;;;;4956004;28;20046;-89
2021/07/06 11:17:42;;;;;;;2.28;1.30;;;22.10;1.00;;;;;;4957422;28;20046;-91
2021/07/06 11:20:08;;;;;;;1.70;1.30;;;21.80;1.00;;;;;;4960100;28;20074;-92
2021/07/06 11:22:55;;;;;;;1.40;1.20;;;22.00;1.00;;;;;;4958673;28;20109;-91
2021/07/06 11:25:24;;;;;;;2.30;1.00;;;22.10;1.00;;;;;;4954805;28;20082;-92
2021/07/06 11:28:11;;;;;;;1.50;1.20;;;22.10;1.00;;;;;;4954752;29;20061;-90
2021/07/06 11:30:58;;;;;;;2.08;1.30;;;21.90;1.00;;;;;;4958313;28;20050;-92
2021/07/06 11:33:30;;;;;;;1.80;1.20;;;21.80;1.00;;;;;;4956843;28;20119;-90
2021/07/06 11:35:58;;;;;;;1.20;1.10;;;21.70;1.00;;;;;;4958095;28;20114;-91
2021/07/06 11:38:29;;;;;;;2.47;1.10;;;21.60;1.00;;;;;;4956733;28;20078;-90
2021/07/06 11:41:00;;;;;;;2.08;1.20;;;21.70;1.00;;;;;;4956546;28;20024;-90
2021/07/06 11:43:29;;;;;;;2.75;1.00;;;21.60;1.00;;;;;;4956933;28;20488;-90
2021/07/06 11:46:02;;;;;;;1.45;1.10;;;21.60;1.00;;;;;;4955688;28;20028;-90
2021/07/06 11:48:36;;;;;;;2.20;1.23;;;21.70;1.00;;;;;;4956579;28;20046;-90
2021/07/06 11:51:22;;;;;;;1.80;1.25;;;21.80;1.00;;;;;;4956373;28;20047;-91
2021/07/06 11:54:02;;;;;;;1.42;1.20;;;21.80;1.00;;;;;;4958092;28;20547;-90
2021/07/06 11:56:29;;;;;;;1.20;1.10;;;22.00;1.00;;;;;;4956818;28;20051;-90
2021/07/06 11:58:55;;;;;;;1.60;1.25;;;22.00;1.00;;;;;;4956886;28;20301;-91
2021/07/06 12:01:21;;;;;;;2.40;1.10;;;21.90;1.00;;;;;;4951243;28;20053;-91
2021/07/06 12:03:47;;;;;;;2.40;1.20;;;21.90;1.00;;;;;;4957410;28;20119;-92
2021/07/06 12:06:18;;;;;;;1.77;1.20;;;21.80;1.00;;;;;;4956877;28;20098;-91
2021/07/06 12:08:49;;;;;;;2.63;1.50;;;21.80;1.00;;;;;;4957837;28;20038;-93
2021/07/06 12:11:25;;;;;;;3.88;1.30;;;22.10;1.00;;;;;;4957216;28;20027;-93
2021/07/06 12:13:51;;;;;;;1.25;0.90;;;22.20;1.00;;;;;;4956607;28;20066;-94
2021/07/06 12:16:27;;;;;;;3.28;1.30;;;22.00;1.00;;;;;;4955561;28;20062;-92
2021/07/06 12:18:58;;;;;;;3.13;1.40;;;22.20;1.00;;;;;;4954367;28;20055;-92
2021/07/06 12:21:42;;;;;;;1.48;1.02;;;22.20;1.00;;;;;;4955867;28;20071;-92
2021/07/06 12:24:09;;;;;;;2.83;1.13;;;22.30;1.00;;;;;;4958143;28;20039;-91
2021/07/06 12:26:43;;;;;;;1.45;1.17;;;22.20;1.00;;;;;;4958579;28;20031;-92
2021/07/06 12:29:09;;;;;;;2.65;1.30;;;22.30;1.00;;;;;;4971675;28;20408;-92
2021/07/06 12:31:39;;;;;;;1.35;1.10;;;22.10;1.00;;;;;;4956076;28;20030;-92
2021/07/06 12:34:15;;;;;;;1.55;1.20;;;22.00;1.00;;;;;;4955265;28;20049;-91
2021/07/06 12:36:56;;;;;;;2.50;0.98;;;21.90;1.00;;;;;;4955793;28;20445;-90
2021/07/06 12:39:27;;;;;;;1.98;1.10;;;21.80;1.00;;;;;;4957027;28;20031;-91
2021/07/06 12:42:03;;;;;;;1.40;1.30;;;21.80;1.00;;;;;;4958015;28;20027;-91
2021/07/06 12:44:46;;;;;;;2.08;1.50;;;21.70;1.00;;;;;;4958312;28;20023;-90
2021/07/06 12:47:26;;;;;;;1.83;1.30;;;21.60;1.00;;;;;;4955422;28;20069;-91
2021/07/06 12:50:05;;;;;;;3.15;1.58;;;21.50;1.00;;;;;;4942242;28;20047;-91
2021/07/06 12:52:30;;;;;;;1.60;1.38;;;21.40;1.00;;;;;;4955683;28;20460;-90
2021/07/06 12:55:05;;;;;;;4.03;1.52;;;21.30;1.00;;;;;;4954677;28;20027;-91
2021/07/06 12:57:32;;;;;;;2.17;1.70;;;21.40;1.00;;;;;;4955977;28;20515;-91